»·PEaware :: N851TX KATL-KCLT

N851TX :: KATL-KCLT

FLIGHT INFORMATION

Flight Status: Arrived
Operator: Privately registered:
United States
More flights under this callsign
Pilot: Andrew J. (13363)
Aircraft: SOCATA TBM-900
(TBM9)
More flights by this aircraft type
Origin: KATL Hartsfield-Jackson Atlanta
United States
Destination: KCLT Charlotte/Douglas Intl
United States
More flights between these airports :: More routes between these airports
Route: ATL9 EAONE AHN V66 GRD UNARM5
File this flight plan on PilotEdge
Remarks:
Altitude:
(Current/Filed)
25,000ft
Speed:
(Current/Filed)
307kts
Departed: 02-Jul-18 08:21 PM
Arrived: 02-Jul-18 09:13 PM
Distance/Time
Traveled:
197nm/0:52
Distance/Time
To Go:
Arrived

Flight Plot

Page will automatically refresh every two minutes.

Flight plan parsing failed; only flown route is shown


Map Options




Map Legend


Flown Route
Filed Route
Departure Airport
Arrival Airport
Navaid (VOR, NDB)
Fix

Horizontal Profiles

Position Reports

Time Latitude Longitude Heading Altitude Ground
Speed
02-Jul-18 20:20 33.651225 -84.424471 272 1027ft 16kts
02-Jul-18 20:21 33.649806 -84.428927 144 1027ft 16kts
02-Jul-18 20:22 33.650417 -84.401254 80 1552ft 147kts
02-Jul-18 20:23 33.660539 -84.352747 71 3734ft 152kts
02-Jul-18 20:24 33.675721 -84.305624 65 5789ft 153kts
02-Jul-18 20:25 33.695746 -84.260489 61 7622ft 157kts
02-Jul-18 20:26 33.721293 -84.216248 56 9510ft 169kts
02-Jul-18 20:27 33.752258 -84.172894 51 11790ft 177kts
02-Jul-18 20:28 33.787848 -84.131591 46 13922ft 180kts
02-Jul-18 20:29 33.827088 -84.093521 53 16043ft 182kts
02-Jul-18 20:30 33.837206 -84.037167 81 18241ft 175kts
02-Jul-18 20:31 33.846184 -83.979128 80 20151ft 180kts
02-Jul-18 20:32 33.855596 -83.919489 78 21822ft 185kts
02-Jul-18 20:33 33.865338 -83.857724 77 23295ft 191kts
02-Jul-18 20:34 33.875410 -83.793652 77 24502ft 206kts
02-Jul-18 20:35 33.887059 -83.718856 77 25044ft 253kts
02-Jul-18 20:36 33.900846 -83.629745 77 25029ft 279kts
02-Jul-18 20:37 33.915005 -83.537850 77 25024ft 280kts
02-Jul-18 20:38 33.929146 -83.445600 77 25012ft 280kts
02-Jul-18 20:39 33.943200 -83.353442 77 24995ft 280kts
02-Jul-18 20:40 33.963721 -83.263910 71 24982ft 279kts
02-Jul-18 20:41 33.986926 -83.176000 70 25174ft 275kts
02-Jul-18 20:42 34.010179 -83.087749 71 25184ft 277kts
02-Jul-18 20:43 34.033531 -82.998863 71 25191ft 278kts
02-Jul-18 20:44 34.056745 -82.910185 71 25190ft 278kts
02-Jul-18 20:45 34.080070 -82.820776 72 25190ft 279kts
02-Jul-18 20:46 34.103564 -82.730401 72 24232ft 304kts
02-Jul-18 20:47 34.129316 -82.630994 72 22845ft 316kts
02-Jul-18 20:48 34.155409 -82.529915 73 21433ft 313kts
02-Jul-18 20:49 34.180866 -82.430919 73 20062ft 307kts
02-Jul-18 20:50 34.204989 -82.336753 74 18769ft 305kts
02-Jul-18 20:51 34.229870 -82.239282 74 17436ft 304kts
02-Jul-18 20:52 34.259182 -82.143877 49 16068ft 310kts
02-Jul-18 20:53 34.318895 -82.069214 48 14730ft 305kts
02-Jul-18 20:54 34.377194 -81.995594 48 13394ft 303kts
02-Jul-18 20:55 34.434775 -81.922710 48 12072ft 299kts
02-Jul-18 20:55 34.482459 -81.862219 48 10978ft 297kts
02-Jul-18 20:56 34.538608 -81.790859 48 9676ft 288kts
02-Jul-18 20:57 34.593231 -81.721296 47 8409ft 282kts
02-Jul-18 20:58 34.647154 -81.652493 46 7163ft 280kts
02-Jul-18 20:59 34.698538 -81.586835 46 6985ft 258kts
02-Jul-18 21:00 34.748639 -81.522645 46 6163ft 266kts
02-Jul-18 21:01 34.799760 -81.457049 46 5168ft 268kts
02-Jul-18 21:02 34.830571 -81.377939 67 4986ft 252kts
02-Jul-18 21:03 34.856221 -81.300410 67 4986ft 244kts
02-Jul-18 21:04 34.880865 -81.226103 67 4987ft 231kts
02-Jul-18 21:05 34.904832 -81.154032 67 4990ft 228kts
02-Jul-18 21:06 34.928786 -81.082231 67 4989ft 228kts
02-Jul-18 21:07 34.952700 -81.010649 67 4988ft 228kts
02-Jul-18 21:08 34.982884 -80.940429 26 3945ft 247kts
02-Jul-18 21:09 35.050323 -80.929284 7 2684ft 233kts
02-Jul-18 21:10 35.109418 -80.927325 358 1982ft 197kts
02-Jul-18 21:11 35.158491 -80.930498 355 1552ft 131kts
02-Jul-18 21:12 35.188052 -80.933109 355 1017ft 89kts
02-Jul-18 21:13 35.208495 -80.934812 356 752ft 30kts
02-Jul-18 21:14 35.210829 -80.932428 175 752ft 9kts
02-Jul-18 21:15 35.210123 -80.931951 82 752ft 0kts
02-Jul-18 21:16 35.210123 -80.931951 82 752ft 0kts
02-Jul-18 21:17 35.210123 -80.931951 82 752ft 0kts
02-Jul-18 21:18 35.210123 -80.931951 82 752ft 0kts
02-Jul-18 21:19 35.210123 -80.931951 82 752ft 0kts
02-Jul-18 21:20 35.210123 -80.931951 82 752ft 0kts
02-Jul-18 21:21 35.210123 -80.931951 82 752ft 0kts
02-Jul-18 21:22 35.210123 -80.931951 82 752ft 0kts
02-Jul-18 21:23 35.210123 -80.931951 82 752ft 0kts
02-Jul-18 21:24 35.210123 -80.931951 82 752ft 0kts
02-Jul-18 21:25 35.210123 -80.931951 82 752ft 0kts
02-Jul-18 21:26 35.210123 -80.931951 82 752ft 0kts
02-Jul-18 21:27 35.210123 -80.931951 82 752ft 0kts

Navigation Log

Ident Type
Flight plan parsing failed, navigation log unavailable